sensor_id;sensor_type;location;lat;lon;timestamp;temperature;humidity
42037;DHT22;30340;52.004;5.908;2023-03-11T00:01:54;2.50;92.90
42037;DHT22;30340;52.004;5.908;2023-03-11T00:04:19;2.40;92.90
42037;DHT22;30340;52.004;5.908;2023-03-11T00:06:45;2.30;92.90
42037;DHT22;30340;52.004;5.908;2023-03-11T00:09:10;2.30;92.90
42037;DHT22;30340;52.004;5.908;2023-03-11T00:11:36;2.30;92.90
42037;DHT22;30340;52.004;5.908;2023-03-11T00:14:01;2.20;92.90
42037;DHT22;30340;52.004;5.908;2023-03-11T00:16:27;2.20;92.90
42037;DHT22;30340;52.004;5.908;2023-03-11T00:18:53;2.20;93.00
42037;DHT22;30340;52.004;5.908;2023-03-11T00:21:18;2.20;92.90
42037;DHT22;30340;52.004;5.908;2023-03-11T00:23:45;2.20;92.90
42037;DHT22;30340;52.004;5.908;2023-03-11T00:26:10;2.20;92.90
42037;DHT22;30340;52.004;5.908;2023-03-11T00:28:36;2.20;92.90
42037;DHT22;30340;52.004;5.908;2023-03-11T00:31:01;2.10;92.90
42037;DHT22;30340;52.004;5.908;2023-03-11T00:33:27;2.10;92.90
42037;DHT22;30340;52.004;5.908;2023-03-11T00:35:53;2.10;92.90
42037;DHT22;30340;52.004;5.908;2023-03-11T00:38:18;2.00;92.90
42037;DHT22;30340;52.004;5.908;2023-03-11T00:40:45;2.10;93.20
42037;DHT22;30340;52.004;5.908;2023-03-11T00:43:10;2.00;92.80
42037;DHT22;30340;52.004;5.908;2023-03-11T00:45:36;2.00;92.80
42037;DHT22;30340;52.004;5.908;2023-03-11T00:48:02;2.00;92.80
42037;DHT22;30340;52.004;5.908;2023-03-11T00:50:29;2.00;92.80
42037;DHT22;30340;52.004;5.908;2023-03-11T00:52:55;2.00;92.80
42037;DHT22;30340;52.004;5.908;2023-03-11T00:55:22;2.00;92.80
42037;DHT22;30340;52.004;5.908;2023-03-11T00:57:50;2.00;92.80
42037;DHT22;30340;52.004;5.908;2023-03-11T01:00:16;2.00;92.80
42037;DHT22;30340;52.004;5.908;2023-03-11T01:02:42;2.00;92.80
42037;DHT22;30340;52.004;5.908;2023-03-11T01:05:08;1.90;92.70
42037;DHT22;30340;52.004;5.908;2023-03-11T01:07:33;1.90;92.70
42037;DHT22;30340;52.004;5.908;2023-03-11T01:09:59;1.90;92.70
42037;DHT22;30340;52.004;5.908;2023-03-11T01:12:24;1.90;92.70
42037;DHT22;30340;52.004;5.908;2023-03-11T01:14:50;1.90;92.70
42037;DHT22;30340;52.004;5.908;2023-03-11T01:17:15;1.80;92.60
42037;DHT22;30340;52.004;5.908;2023-03-11T01:19:41;1.80;92.60
42037;DHT22;30340;52.004;5.908;2023-03-11T01:22:06;1.90;92.60
42037;DHT22;30340;52.004;5.908;2023-03-11T01:24:32;1.90;92.60
42037;DHT22;30340;52.004;5.908;2023-03-11T01:26:57;1.90;92.60
42037;DHT22;30340;52.004;5.908;2023-03-11T01:29:23;1.90;92.50
42037;DHT22;30340;52.004;5.908;2023-03-11T01:31:48;1.90;92.50
42037;DHT22;30340;52.004;5.908;2023-03-11T01:34:14;1.90;92.50
42037;DHT22;30340;52.004;5.908;2023-03-11T01:36:39;1.80;92.50
42037;DHT22;30340;52.004;5.908;2023-03-11T01:39:05;1.80;92.40
42037;DHT22;30340;52.004;5.908;2023-03-11T01:41:30;1.80;92.40
42037;DHT22;30340;52.004;5.908;2023-03-11T01:43:56;1.90;92.40
42037;DHT22;30340;52.004;5.908;2023-03-11T01:46:23;1.80;92.40
42037;DHT22;30340;52.004;5.908;2023-03-11T01:48:49;1.80;92.40
42037;DHT22;30340;52.004;5.908;2023-03-11T01:51:16;1.80;92.50
42037;DHT22;30340;52.004;5.908;2023-03-11T01:53:43;1.80;92.50
42037;DHT22;30340;52.004;5.908;2023-03-11T01:56:09;1.80;92.50
42037;DHT22;30340;52.004;5.908;2023-03-11T01:58:36;1.80;92.40
42037;DHT22;30340;52.004;5.908;2023-03-11T02:01:03;1.80;92.30
42037;DHT22;30340;52.004;5.908;2023-03-11T02:03:30;1.80;92.40
42037;DHT22;30340;52.004;5.908;2023-03-11T02:05:55;1.80;92.40
42037;DHT22;30340;52.004;5.908;2023-03-11T02:08:21;1.80;92.30
42037;DHT22;30340;52.004;5.908;2023-03-11T02:10:47;1.80;92.40
42037;DHT22;30340;52.004;5.908;2023-03-11T02:13:14;1.80;92.40
42037;DHT22;30340;52.004;5.908;2023-03-11T02:15:40;1.80;92.40
42037;DHT22;30340;52.004;5.908;2023-03-11T02:18:05;1.80;92.40
42037;DHT22;30340;52.004;5.908;2023-03-11T02:20:40;1.70;92.30
42037;DHT22;30340;52.004;5.908;2023-03-11T02:23:07;1.70;92.30
42037;DHT22;30340;52.004;5.908;2023-03-11T02:26:06;1.80;92.30
42037;DHT22;30340;52.004;5.908;2023-03-11T02:28:24;1.70;92.30
42037;DHT22;30340;52.004;5.908;2023-03-11T02:30:50;1.70;92.30
42037;DHT22;30340;52.004;5.908;2023-03-11T02:33:16;1.70;92.30
42037;DHT22;30340;52.004;5.908;2023-03-11T02:35:42;1.70;92.30
42037;DHT22;30340;52.004;5.908;2023-03-11T02:38:08;1.70;92.30
42037;DHT22;30340;52.004;5.908;2023-03-11T02:40:38;1.70;92.30
42037;DHT22;30340;52.004;5.908;2023-03-11T02:43:06;1.70;92.60
42037;DHT22;30340;52.004;5.908;2023-03-11T02:45:33;1.70;92.30
42037;DHT22;30340;52.004;5.908;2023-03-11T02:47:59;1.60;92.30
42037;DHT22;30340;52.004;5.908;2023-03-11T02:50:25;1.60;92.30
42037;DHT22;30340;52.004;5.908;2023-03-11T02:52:52;1.60;92.30
42037;DHT22;30340;52.004;5.908;2023-03-11T02:55:18;1.70;92.30
42037;DHT22;30340;52.004;5.908;2023-03-11T02:57:45;1.70;92.30
42037;DHT22;30340;52.004;5.908;2023-03-11T03:00:11;1.60;92.30
42037;DHT22;30340;52.004;5.908;2023-03-11T03:02:39;1.70;92.30
42037;DHT22;30340;52.004;5.908;2023-03-11T03:05:05;1.70;92.30
42037;DHT22;30340;52.004;5.908;2023-03-11T03:07:31;1.70;92.20
42037;DHT22;30340;52.004;5.908;2023-03-11T03:09:57;1.70;92.20
42037;DHT22;30340;52.004;5.908;2023-03-11T03:12:22;1.80;92.20
42037;DHT22;30340;52.004;5.908;2023-03-11T03:14:48;1.80;92.20
42037;DHT22;30340;52.004;5.908;2023-03-11T03:17:13;1.80;92.20
42037;DHT22;30340;52.004;5.908;2023-03-11T03:19:39;1.80;92.20
42037;DHT22;30340;52.004;5.908;2023-03-11T03:22:04;1.80;92.10
42037;DHT22;30340;52.004;5.908;2023-03-11T03:24:30;1.80;92.00
42037;DHT22;30340;52.004;5.908;2023-03-11T03:26:55;1.90;92.10
42037;DHT22;30340;52.004;5.908;2023-03-11T03:29:21;1.80;92.00
42037;DHT22;30340;52.004;5.908;2023-03-11T03:31:46;1.80;91.90
42037;DHT22;30340;52.004;5.908;2023-03-11T03:34:11;1.80;91.90
42037;DHT22;30340;52.004;5.908;2023-03-11T03:36:37;1.80;91.90
42037;DHT22;30340;52.004;5.908;2023-03-11T03:39:03;1.90;91.90
42037;DHT22;30340;52.004;5.908;2023-03-11T03:41:28;1.90;91.90
42037;DHT22;30340;52.004;5.908;2023-03-11T03:43:54;1.90;91.90
42037;DHT22;30340;52.004;5.908;2023-03-11T03:46:19;2.00;91.80
42037;DHT22;30340;52.004;5.908;2023-03-11T03:48:45;2.00;91.70
42037;DHT22;30340;52.004;5.908;2023-03-11T03:51:11;2.00;91.70
42037;DHT22;30340;52.004;5.908;2023-03-11T03:53:37;1.90;91.60
42037;DHT22;30340;52.004;5.908;2023-03-11T03:56:03;1.90;91.70
42037;DHT22;30340;52.004;5.908;2023-03-11T03:58:28;2.00;91.70
42037;DHT22;30340;52.004;5.908;2023-03-11T04:00:54;2.00;91.70
42037;DHT22;30340;52.004;5.908;2023-03-11T04:03:20;2.00;91.70
42037;DHT22;30340;52.004;5.908;2023-03-11T04:05:45;2.00;91.70
42037;DHT22;30340;52.004;5.908;2023-03-11T04:08:11;2.00;91.70
42037;DHT22;30340;52.004;5.908;2023-03-11T04:10:36;2.00;91.70
42037;DHT22;30340;52.004;5.908;2023-03-11T04:13:02;2.00;91.60
42037;DHT22;30340;52.004;5.908;2023-03-11T04:15:27;2.10;91.70
42037;DHT22;30340;52.004;5.908;2023-03-11T04:17:53;2.00;91.60
42037;DHT22;30340;52.004;5.908;2023-03-11T04:20:18;2.00;91.70
42037;DHT22;30340;52.004;5.908;2023-03-11T04:22:44;2.00;91.70
42037;DHT22;30340;52.004;5.908;2023-03-11T04:25:09;2.00;91.70
42037;DHT22;30340;52.004;5.908;2023-03-11T04:27:35;2.00;91.70
42037;DHT22;30340;52.004;5.908;2023-03-11T04:30:03;2.00;91.60
42037;DHT22;30340;52.004;5.908;2023-03-11T04:32:29;1.90;91.60
42037;DHT22;30340;52.004;5.908;2023-03-11T04:34:54;1.90;91.60
42037;DHT22;30340;52.004;5.908;2023-03-11T04:37:20;1.90;91.60
42037;DHT22;30340;52.004;5.908;2023-03-11T04:39:45;1.90;91.70
42037;DHT22;30340;52.004;5.908;2023-03-11T04:42:11;1.90;91.70
42037;DHT22;30340;52.004;5.908;2023-03-11T04:44:38;1.90;91.70
42037;DHT22;30340;52.004;5.908;2023-03-11T04:47:03;1.90;91.60
42037;DHT22;30340;52.004;5.908;2023-03-11T04:49:29;1.80;91.60
42037;DHT22;30340;52.004;5.908;2023-03-11T04:51:55;1.80;91.60
42037;DHT22;30340;52.004;5.908;2023-03-11T04:54:20;1.90;91.60
42037;DHT22;30340;52.004;5.908;2023-03-11T04:56:46;1.80;91.60
42037;DHT22;30340;52.004;5.908;2023-03-11T04:59:11;1.80;91.60
42037;DHT22;30340;52.004;5.908;2023-03-11T05:01:37;1.80;91.60
42037;DHT22;30340;52.004;5.908;2023-03-11T05:04:02;1.70;91.50
42037;DHT22;30340;52.004;5.908;2023-03-11T05:06:28;1.70;91.60
42037;DHT22;30340;52.004;5.908;2023-03-11T05:08:53;1.70;91.60
42037;DHT22;30340;52.004;5.908;2023-03-11T05:11:19;1.70;91.60
42037;DHT22;30340;52.004;5.908;2023-03-11T05:13:44;1.70;91.60
42037;DHT22;30340;52.004;5.908;2023-03-11T05:16:10;1.70;91.60
42037;DHT22;30340;52.004;5.908;2023-03-11T05:18:35;1.70;91.60
42037;DHT22;30340;52.004;5.908;2023-03-11T05:21:01;1.70;91.60
42037;DHT22;30340;52.004;5.908;2023-03-11T05:23:26;1.70;91.50
42037;DHT22;30340;52.004;5.908;2023-03-11T05:25:51;1.70;91.60
42037;DHT22;30340;52.004;5.908;2023-03-11T05:28:17;1.60;91.50
42037;DHT22;30340;52.004;5.908;2023-03-11T05:30:42;1.70;91.60
42037;DHT22;30340;52.004;5.908;2023-03-11T05:33:08;1.60;91.50
42037;DHT22;30340;52.004;5.908;2023-03-11T05:35:33;1.50;91.50
42037;DHT22;30340;52.004;5.908;2023-03-11T05:37:59;1.50;91.50
42037;DHT22;30340;52.004;5.908;2023-03-11T05:40:24;1.50;91.60
42037;DHT22;30340;52.004;5.908;2023-03-11T05:42:50;1.40;91.50
42037;DHT22;30340;52.004;5.908;2023-03-11T05:45:16;1.40;91.60
42037;DHT22;30340;52.004;5.908;2023-03-11T05:47:41;1.40;91.50
42037;DHT22;30340;52.004;5.908;2023-03-11T05:50:07;1.40;91.60
42037;DHT22;30340;52.004;5.908;2023-03-11T05:52:33;1.40;91.60
42037;DHT22;30340;52.004;5.908;2023-03-11T05:54:58;1.40;91.70
42037;DHT22;30340;52.004;5.908;2023-03-11T05:57:24;1.40;91.70
42037;DHT22;30340;52.004;5.908;2023-03-11T05:59:49;1.40;91.60
42037;DHT22;30340;52.004;5.908;2023-03-11T06:02:15;1.40;91.50
42037;DHT22;30340;52.004;5.908;2023-03-11T06:04:40;1.40;91.50
42037;DHT22;30340;52.004;5.908;2023-03-11T06:07:06;1.50;91.40
42037;DHT22;30340;52.004;5.908;2023-03-11T06:09:31;1.50;91.40
42037;DHT22;30340;52.004;5.908;2023-03-11T06:11:59;1.50;91.30
42037;DHT22;30340;52.004;5.908;2023-03-11T06:14:25;1.40;91.30
42037;DHT22;30340;52.004;5.908;2023-03-11T06:16:53;1.50;91.30
42037;DHT22;30340;52.004;5.908;2023-03-11T06:19:18;1.50;91.20
42037;DHT22;30340;52.004;5.908;2023-03-11T06:21:44;1.50;91.20
42037;DHT22;30340;52.004;5.908;2023-03-11T06:24:10;1.50;91.10
42037;DHT22;30340;52.004;5.908;2023-03-11T06:26:35;1.50;91.10
42037;DHT22;30340;52.004;5.908;2023-03-11T06:29:00;1.50;91.00
42037;DHT22;30340;52.004;5.908;2023-03-11T06:31:27;1.60;91.00
42037;DHT22;30340;52.004;5.908;2023-03-11T06:33:53;1.60;91.00
42037;DHT22;30340;52.004;5.908;2023-03-11T06:36:20;1.70;91.00
42037;DHT22;30340;52.004;5.908;2023-03-11T06:38:45;1.70;90.90
42037;DHT22;30340;52.004;5.908;2023-03-11T06:41:12;1.70;90.90
42037;DHT22;30340;52.004;5.908;2023-03-11T06:43:38;1.70;90.80
42037;DHT22;30340;52.004;5.908;2023-03-11T06:46:07;1.80;90.70
42037;DHT22;30340;52.004;5.908;2023-03-11T06:48:33;1.80;90.70
42037;DHT22;30340;52.004;5.908;2023-03-11T06:50:59;1.80;90.60
42037;DHT22;30340;52.004;5.908;2023-03-11T06:53:25;1.80;90.60
42037;DHT22;30340;52.004;5.908;2023-03-11T06:55:58;1.90;90.60
42037;DHT22;30340;52.004;5.908;2023-03-11T06:58:24;1.90;90.60
42037;DHT22;30340;52.004;5.908;2023-03-11T07:00:49;2.00;90.60
42037;DHT22;30340;52.004;5.908;2023-03-11T07:03:15;2.00;90.60
42037;DHT22;30340;52.004;5.908;2023-03-11T07:05:40;2.10;90.50
42037;DHT22;30340;52.004;5.908;2023-03-11T07:08:06;2.20;90.50
42037;DHT22;30340;52.004;5.908;2023-03-11T07:10:31;2.20;90.40
42037;DHT22;30340;52.004;5.908;2023-03-11T07:12:57;2.30;90.30
42037;DHT22;30340;52.004;5.908;2023-03-11T07:15:22;2.30;90.30
42037;DHT22;30340;52.004;5.908;2023-03-11T07:17:48;2.40;90.20
42037;DHT22;30340;52.004;5.908;2023-03-11T07:20:13;2.50;90.10
42037;DHT22;30340;52.004;5.908;2023-03-11T07:22:39;2.60;90.00
42037;DHT22;30340;52.004;5.908;2023-03-11T07:25:04;2.70;89.90
42037;DHT22;30340;52.004;5.908;2023-03-11T07:27:30;2.80;89.80
42037;DHT22;30340;52.004;5.908;2023-03-11T07:29:55;2.80;89.60
42037;DHT22;30340;52.004;5.908;2023-03-11T07:32:21;2.90;89.60
42037;DHT22;30340;52.004;5.908;2023-03-11T07:34:46;3.00;89.60
42037;DHT22;30340;52.004;5.908;2023-03-11T07:37:11;3.00;89.40
42037;DHT22;30340;52.004;5.908;2023-03-11T07:39:38;3.10;89.40
42037;DHT22;30340;52.004;5.908;2023-03-11T07:42:03;3.20;89.30
42037;DHT22;30340;52.004;5.908;2023-03-11T07:44:29;3.20;89.20
42037;DHT22;30340;52.004;5.908;2023-03-11T07:46:55;3.20;88.90
42037;DHT22;30340;52.004;5.908;2023-03-11T07:49:20;3.30;88.90
42037;DHT22;30340;52.004;5.908;2023-03-11T07:51:46;3.30;88.80
42037;DHT22;30340;52.004;5.908;2023-03-11T07:54:12;3.40;88.70
42037;DHT22;30340;52.004;5.908;2023-03-11T07:56:37;3.50;88.60
42037;DHT22;30340;52.004;5.908;2023-03-11T07:59:03;3.50;88.50
42037;DHT22;30340;52.004;5.908;2023-03-11T08:01:29;3.60;88.60
42037;DHT22;30340;52.004;5.908;2023-03-11T08:04:00;3.60;88.50
42037;DHT22;30340;52.004;5.908;2023-03-11T08:06:27;3.60;88.30
42037;DHT22;30340;52.004;5.908;2023-03-11T08:08:55;3.70;88.20
42037;DHT22;30340;52.004;5.908;2023-03-11T08:11:21;3.70;88.00
42037;DHT22;30340;52.004;5.908;2023-03-11T08:13:47;3.70;88.00
42037;DHT22;30340;52.004;5.908;2023-03-11T08:16:14;3.90;88.00
42037;DHT22;30340;52.004;5.908;2023-03-11T08:18:40;3.90;87.90
42037;DHT22;30340;52.004;5.908;2023-03-11T08:21:06;4.00;87.70
42037;DHT22;30340;52.004;5.908;2023-03-11T08:23:32;4.00;87.50
42037;DHT22;30340;52.004;5.908;2023-03-11T08:25:58;4.10;87.50
42037;DHT22;30340;52.004;5.908;2023-03-11T08:28:23;4.00;87.30
42037;DHT22;30340;52.004;5.908;2023-03-11T08:30:49;4.10;87.30
42037;DHT22;30340;52.004;5.908;2023-03-11T08:33:14;4.20;87.20
42037;DHT22;30340;52.004;5.908;2023-03-11T08:35:40;4.20;87.10
42037;DHT22;30340;52.004;5.908;2023-03-11T08:38:05;4.30;87.10
42037;DHT22;30340;52.004;5.908;2023-03-11T08:40:30;4.30;87.00
42037;DHT22;30340;52.004;5.908;2023-03-11T08:42:56;4.40;87.00
42037;DHT22;30340;52.004;5.908;2023-03-11T08:45:22;4.40;86.70
42037;DHT22;30340;52.004;5.908;2023-03-11T08:47:47;4.50;86.60
42037;DHT22;30340;52.004;5.908;2023-03-11T08:50:14;4.50;86.50
42037;DHT22;30340;52.004;5.908;2023-03-11T08:52:40;4.50;86.30
42037;DHT22;30340;52.004;5.908;2023-03-11T08:55:05;4.60;86.30
42037;DHT22;30340;52.004;5.908;2023-03-11T08:57:33;4.60;86.10
42037;DHT22;30340;52.004;5.908;2023-03-11T08:59:58;4.70;86.10
42037;DHT22;30340;52.004;5.908;2023-03-11T09:02:24;4.80;85.90
42037;DHT22;30340;52.004;5.908;2023-03-11T09:04:50;4.80;85.70
42037;DHT22;30340;52.004;5.908;2023-03-11T09:07:15;4.80;85.60
42037;DHT22;30340;52.004;5.908;2023-03-11T09:09:41;4.90;85.60
42037;DHT22;30340;52.004;5.908;2023-03-11T09:12:06;5.00;85.60
42037;DHT22;30340;52.004;5.908;2023-03-11T09:14:32;5.00;85.50
42037;DHT22;30340;52.004;5.908;2023-03-11T09:16:57;5.00;85.40
42037;DHT22;30340;52.004;5.908;2023-03-11T09:19:23;5.10;85.40
42037;DHT22;30340;52.004;5.908;2023-03-11T09:21:49;5.10;85.20
42037;DHT22;30340;52.004;5.908;2023-03-11T09:24:14;5.20;85.20
42037;DHT22;30340;52.004;5.908;2023-03-11T09:26:40;5.20;85.10
42037;DHT22;30340;52.004;5.908;2023-03-11T09:29:05;5.20;85.00
42037;DHT22;30340;52.004;5.908;2023-03-11T09:31:31;5.30;84.90
42037;DHT22;30340;52.004;5.908;2023-03-11T09:33:56;5.40;84.90
42037;DHT22;30340;52.004;5.908;2023-03-11T09:36:22;5.40;84.70
42037;DHT22;30340;52.004;5.908;2023-03-11T09:38:47;5.50;84.70
42037;DHT22;30340;52.004;5.908;2023-03-11T09:41:17;5.60;84.60
42037;DHT22;30340;52.004;5.908;2023-03-11T09:51:35;5.70;84.20
42037;DHT22;30340;52.004;5.908;2023-03-11T09:54:03;5.70;84.00
42037;DHT22;30340;52.004;5.908;2023-03-11T09:56:29;5.80;84.00
42037;DHT22;30340;52.004;5.908;2023-03-11T09:58:59;5.80;83.90
42037;DHT22;30340;52.004;5.908;2023-03-11T10:01:26;6.00;83.80
42037;DHT22;30340;52.004;5.908;2023-03-11T10:04:03;6.00;83.40
42037;DHT22;30340;52.004;5.908;2023-03-11T10:06:32;6.10;83.20
42037;DHT22;30340;52.004;5.908;2023-03-11T10:08:59;6.10;83.10
42037;DHT22;30340;52.004;5.908;2023-03-11T10:16:26;6.30;82.80
42037;DHT22;30340;52.004;5.908;2023-03-11T10:18:57;6.30;82.60
42037;DHT22;30340;52.004;5.908;2023-03-11T10:23:55;6.30;82.60
42037;DHT22;30340;52.004;5.908;2023-03-11T10:26:25;6.40;82.50
42037;DHT22;30340;52.004;5.908;2023-03-11T10:29:02;6.40;82.40
42037;DHT22;30340;52.004;5.908;2023-03-11T10:31:52;6.50;82.30
42037;DHT22;30340;52.004;5.908;2023-03-11T10:34:23;6.60;82.10
42037;DHT22;30340;52.004;5.908;2023-03-11T10:39:22;6.80;81.70
42037;DHT22;30340;52.004;5.908;2023-03-11T10:41:49;6.80;81.40
42037;DHT22;30340;52.004;5.908;2023-03-11T10:44:19;6.90;81.20
42037;DHT22;30340;52.004;5.908;2023-03-11T10:46:48;6.90;81.30
42037;DHT22;30340;52.004;5.908;2023-03-11T10:49:14;7.00;81.20
42037;DHT22;30340;52.004;5.908;2023-03-11T10:51:40;7.00;81.10
42037;DHT22;30340;52.004;5.908;2023-03-11T10:54:08;7.10;80.90
42037;DHT22;30340;52.004;5.908;2023-03-11T10:56:44;7.10;80.50
42037;DHT22;30340;52.004;5.908;2023-03-11T11:01:55;7.20;80.40
42037;DHT22;30340;52.004;5.908;2023-03-11T11:04:24;7.30;80.30
42037;DHT22;30340;52.004;5.908;2023-03-11T11:06:51;7.30;80.00
42037;DHT22;30340;52.004;5.908;2023-03-11T11:11:42;7.40;79.80
42037;DHT22;30340;52.004;5.908;2023-03-11T11:14:24;7.40;79.80
42037;DHT22;30340;52.004;5.908;2023-03-11T11:16:49;7.40;79.80
42037;DHT22;30340;52.004;5.908;2023-03-11T11:19:15;7.50;79.70
42037;DHT22;30340;52.004;5.908;2023-03-11T11:21:44;7.50;79.40
42037;DHT22;30340;52.004;5.908;2023-03-11T11:26:41;7.50;79.00
42037;DHT22;30340;52.004;5.908;2023-03-11T11:31:39;7.30;78.60
42037;DHT22;30340;52.004;5.908;2023-03-11T11:36:49;7.40;78.70
42037;DHT22;30340;52.004;5.908;2023-03-11T11:39:15;7.40;78.80
42037;DHT22;30340;52.004;5.908;2023-03-11T11:41:43;7.40;78.80
42037;DHT22;30340;52.004;5.908;2023-03-11T11:44:08;7.40;78.10
42037;DHT22;30340;52.004;5.908;2023-03-11T11:46:40;7.40;78.40
42037;DHT22;30340;52.004;5.908;2023-03-11T11:49:11;7.50;78.60
42037;DHT22;30340;52.004;5.908;2023-03-11T11:51:40;7.50;78.30
42037;DHT22;30340;52.004;5.908;2023-03-11T11:54:14;7.70;78.30
42037;DHT22;30340;52.004;5.908;2023-03-11T11:56:42;7.70;78.10
42037;DHT22;30340;52.004;5.908;2023-03-11T11:59:17;7.80;77.90
42037;DHT22;30340;52.004;5.908;2023-03-11T12:01:47;7.80;77.90
42037;DHT22;30340;52.004;5.908;2023-03-11T12:09:40;7.90;76.10
42037;DHT22;30340;52.004;5.908;2023-03-11T12:14:40;8.00;75.60
42037;DHT22;30340;52.004;5.908;2023-03-11T12:17:07;8.10;75.80
42037;DHT22;30340;52.004;5.908;2023-03-11T12:22:04;8.00;75.50
42037;DHT22;30340;52.004;5.908;2023-03-11T12:29:58;8.30;75.40
42037;DHT22;30340;52.004;5.908;2023-03-11T12:32:46;8.30;74.60
42037;DHT22;30340;52.004;5.908;2023-03-11T12:35:24;8.30;74.80
42037;DHT22;30340;52.004;5.908;2023-03-11T12:38:06;8.30;74.30
42037;DHT22;30340;52.004;5.908;2023-03-11T12:45:54;8.50;74.20
42037;DHT22;30340;52.004;5.908;2023-03-11T12:50:51;8.60;73.40
42037;DHT22;30340;52.004;5.908;2023-03-11T12:53:17;8.70;73.10
42037;DHT22;30340;52.004;5.908;2023-03-11T12:56:04;8.80;73.00
42037;DHT22;30340;52.004;5.908;2023-03-11T13:01:14;8.90;71.60
42037;DHT22;30340;52.004;5.908;2023-03-11T13:03:44;9.00;71.30
42037;DHT22;30340;52.004;5.908;2023-03-11T13:06:14;9.10;71.80
42037;DHT22;30340;52.004;5.908;2023-03-11T13:08:48;9.10;70.30
42037;DHT22;30340;52.004;5.908;2023-03-11T13:13:51;9.10;70.80
42037;DHT22;30340;52.004;5.908;2023-03-11T13:18:43;9.00;70.60
42037;DHT22;30340;52.004;5.908;2023-03-11T13:24:54;9.10;70.10
42037;DHT22;30340;52.004;5.908;2023-03-11T13:35:19;9.10;68.70
42037;DHT22;30340;52.004;5.908;2023-03-11T13:38:10;9.20;69.50
42037;DHT22;30340;52.004;5.908;2023-03-11T13:40:43;9.30;69.80
42037;DHT22;30340;52.004;5.908;2023-03-11T13:45:37;9.40;68.50
42037;DHT22;30340;52.004;5.908;2023-03-11T13:48:09;9.30;68.20
42037;DHT22;30340;52.004;5.908;2023-03-11T13:50:58;9.40;68.50
42037;DHT22;30340;52.004;5.908;2023-03-11T13:53:29;9.50;67.60
42037;DHT22;30340;52.004;5.908;2023-03-11T13:55:56;9.30;65.90
42037;DHT22;30340;52.004;5.908;2023-03-11T13:58:23;9.40;66.30
42037;DHT22;30340;52.004;5.908;2023-03-11T14:00:49;9.40;66.80
42037;DHT22;30340;52.004;5.908;2023-03-11T14:03:16;9.40;67.10
42037;DHT22;30340;52.004;5.908;2023-03-11T14:05:47;9.40;66.90
42037;DHT22;30340;52.004;5.908;2023-03-11T14:08:25;9.40;67.30
42037;DHT22;30340;52.004;5.908;2023-03-11T14:11:00;9.40;67.30
42037;DHT22;30340;52.004;5.908;2023-03-11T14:13:27;9.50;67.60
42037;DHT22;30340;52.004;5.908;2023-03-11T14:15:56;9.40;67.40
42037;DHT22;30340;52.004;5.908;2023-03-11T14:20:51;9.40;67.30
42037;DHT22;30340;52.004;5.908;2023-03-11T14:23:17;9.40;67.60
42037;DHT22;30340;52.004;5.908;2023-03-11T14:25:43;9.40;68.00
42037;DHT22;30340;52.004;5.908;2023-03-11T14:28:12;9.40;67.80
42037;DHT22;30340;52.004;5.908;2023-03-11T14:30:41;9.20;67.10
42037;DHT22;30340;52.004;5.908;2023-03-11T14:33:20;9.20;67.30
42037;DHT22;30340;52.004;5.908;2023-03-11T14:36:03;9.30;67.90
42037;DHT22;30340;52.004;5.908;2023-03-11T14:38:30;9.30;67.80
42037;DHT22;30340;52.004;5.908;2023-03-11T14:41:01;9.20;67.90
42037;DHT22;30340;52.004;5.908;2023-03-11T14:43:28;9.20;67.10
42037;DHT22;30340;52.004;5.908;2023-03-11T14:45:56;9.10;67.30
42037;DHT22;30340;52.004;5.908;2023-03-11T14:48:28;9.00;66.90
42037;DHT22;30340;52.004;5.908;2023-03-11T14:50:56;8.90;67.40
42037;DHT22;30340;52.004;5.908;2023-03-11T14:53:29;8.80;67.60
42037;DHT22;30340;52.004;5.908;2023-03-11T14:55:58;8.60;66.90
42037;DHT22;30340;52.004;5.908;2023-03-11T15:03:27;8.50;67.60
42037;DHT22;30340;52.004;5.908;2023-03-11T15:08:29;8.60;67.90
42037;DHT22;30340;52.004;5.908;2023-03-11T15:11:38;8.60;68.00
42037;DHT22;30340;52.004;5.908;2023-03-11T15:13:45;8.70;67.90
42037;DHT22;30340;52.004;5.908;2023-03-11T15:16:23;8.60;67.80
42037;DHT22;30340;52.004;5.908;2023-03-11T15:18:48;8.60;67.50
42037;DHT22;30340;52.004;5.908;2023-03-11T15:21:18;8.50;67.50
42037;DHT22;30340;52.004;5.908;2023-03-11T15:23:48;8.50;67.70
42037;DHT22;30340;52.004;5.908;2023-03-11T15:26:22;8.50;66.70
42037;DHT22;30340;52.004;5.908;2023-03-11T15:29:03;8.50;67.20
42037;DHT22;30340;52.004;5.908;2023-03-11T15:31:36;8.60;67.20
42037;DHT22;30340;52.004;5.908;2023-03-11T15:34:09;8.50;66.90
42037;DHT22;30340;52.004;5.908;2023-03-11T15:36:36;8.40;67.10
42037;DHT22;30340;52.004;5.908;2023-03-11T15:41:39;8.30;66.50
42037;DHT22;30340;52.004;5.908;2023-03-11T15:44:14;8.20;67.00
42037;DHT22;30340;52.004;5.908;2023-03-11T15:46:39;8.30;67.20
42037;DHT22;30340;52.004;5.908;2023-03-11T15:49:08;8.20;67.20
42037;DHT22;30340;52.004;5.908;2023-03-11T15:51:36;8.20;67.20
42037;DHT22;30340;52.004;5.908;2023-03-11T15:54:02;8.10;67.30
42037;DHT22;30340;52.004;5.908;2023-03-11T15:56:27;8.10;67.40
42037;DHT22;30340;52.004;5.908;2023-03-11T15:58:53;8.10;67.80
42037;DHT22;30340;52.004;5.908;2023-03-11T16:01:18;8.00;67.90
42037;DHT22;30340;52.004;5.908;2023-03-11T16:03:47;8.00;68.10
42037;DHT22;30340;52.004;5.908;2023-03-11T16:06:13;7.90;68.00
42037;DHT22;30340;52.004;5.908;2023-03-11T16:08:38;7.90;68.10
42037;DHT22;30340;52.004;5.908;2023-03-11T16:11:04;7.80;68.20
42037;DHT22;30340;52.004;5.908;2023-03-11T16:13:29;7.80;68.40
42037;DHT22;30340;52.004;5.908;2023-03-11T16:15:55;7.80;68.60
42037;DHT22;30340;52.004;5.908;2023-03-11T16:18:20;7.80;68.40
42037;DHT22;30340;52.004;5.908;2023-03-11T16:20:46;7.70;68.40
42037;DHT22;30340;52.004;5.908;2023-03-11T16:23:20;7.70;68.20
42037;DHT22;30340;52.004;5.908;2023-03-11T16:25:46;7.50;68.30
42037;DHT22;30340;52.004;5.908;2023-03-11T16:28:12;7.50;68.10
42037;DHT22;30340;52.004;5.908;2023-03-11T16:30:38;7.50;68.20
42037;DHT22;30340;52.004;5.908;2023-03-11T16:33:03;7.40;68.30
42037;DHT22;30340;52.004;5.908;2023-03-11T16:35:29;7.40;68.50
42037;DHT22;30340;52.004;5.908;2023-03-11T16:37:54;7.40;68.30
42037;DHT22;30340;52.004;5.908;2023-03-11T16:40:21;7.40;68.40
42037;DHT22;30340;52.004;5.908;2023-03-11T16:42:49;7.50;68.50
42037;DHT22;30340;52.004;5.908;2023-03-11T16:45:15;7.30;68.50
42037;DHT22;30340;52.004;5.908;2023-03-11T16:47:41;7.30;68.60
42037;DHT22;30340;52.004;5.908;2023-03-11T16:50:07;7.20;68.70
42037;DHT22;30340;52.004;5.908;2023-03-11T16:52:32;7.20;68.70
42037;DHT22;30340;52.004;5.908;2023-03-11T16:54:58;7.10;68.70
42037;DHT22;30340;52.004;5.908;2023-03-11T16:57:23;7.10;68.80
42037;DHT22;30340;52.004;5.908;2023-03-11T16:59:49;7.10;69.00
42037;DHT22;30340;52.004;5.908;2023-03-11T17:02:16;7.10;69.10
42037;DHT22;30340;52.004;5.908;2023-03-11T17:04:41;7.00;69.10
42037;DHT22;30340;52.004;5.908;2023-03-11T17:07:07;7.00;69.20
42037;DHT22;30340;52.004;5.908;2023-03-11T17:09:33;7.00;69.40
42037;DHT22;30340;52.004;5.908;2023-03-11T17:11:59;6.90;69.50
42037;DHT22;30340;52.004;5.908;2023-03-11T17:14:25;6.90;69.80